Time;durP1;ratioP1;P1;durP2;ratioP2;P2;SDS_P1;SDS_P2;PMS_P1;PMS_P2;Temp;Humidity;BMP_temperature;BMP_pressure;BME280_temperature;BME280_humidity;BME280_pressure;Samples;Min_cycle;Max_cycle;Signal;HPM_P1;HPM_P2
2022/08/19 00:05:26;;;;;;;0.20;0.10;;;20.20;99.90;;;;;;26176532;22;20187;-69
2022/08/19 00:15:29;;;;;;;0.20;0.03;;;20.50;99.90;;;;;;26147650;22;20204;-69
2022/08/19 00:25:36;;;;;;;0.20;0.00;;;20.20;99.90;;;;;;26175321;22;20163;-69
2022/08/19 00:35:39;;;;;;;0.20;0.10;;;20.30;99.90;;;;;;26172434;22;20183;-69
2022/08/19 00:45:45;;;;;;;0.20;0.00;;;20.60;99.90;;;;;;26174186;22;20177;-68
2022/08/19 00:55:50;;;;;;;0.20;0.00;;;20.40;99.90;;;;;;26174177;22;20198;-69
2022/08/19 01:05:57;;;;;;;0.20;0.00;;;20.30;99.90;;;;;;26171922;22;20198;-67
2022/08/19 01:16:04;;;;;;;0.20;0.10;;;20.00;99.90;;;;;;26172944;22;20199;-68
2022/08/19 01:26:11;;;;;;;0.20;0.10;;;19.90;99.90;;;;;;26170808;22;20167;-68
2022/08/19 01:36:23;;;;;;;0.20;0.00;;;19.60;99.90;;;;;;26143411;22;20164;-68
2022/08/19 01:46:28;;;;;;;0.20;0.00;;;19.20;99.90;;;;;;26170708;22;20158;-68
2022/08/19 01:56:32;;;;;;;0.20;0.10;;;19.00;99.90;;;;;;26170209;22;20174;-68
2022/08/19 02:06:37;;;;;;;0.20;0.00;;;19.10;99.90;;;;;;26171314;22;20183;-68
2022/08/19 02:16:41;;;;;;;0.20;0.10;;;19.10;99.90;;;;;;26141664;22;20195;-68
2022/08/19 02:26:46;;;;;;;0.20;0.00;;;19.00;99.90;;;;;;26170181;22;20421;-68
2022/08/19 02:36:49;;;;;;;0.20;0.00;;;19.00;99.90;;;;;;26171257;22;20167;-68
2022/08/19 02:46:56;;;;;;;0.20;0.10;;;18.90;99.90;;;;;;26180407;22;20198;-68
2022/08/19 02:57:00;;;;;;;0.20;0.00;;;18.90;99.90;;;;;;26150308;22;20164;-68
2022/08/19 03:07:05;;;;;;;0.20;0.10;;;19.00;99.90;;;;;;26152557;22;20187;-68
2022/08/19 03:17:13;;;;;;;0.20;0.10;;;19.20;99.90;;;;;;26176528;22;20258;-68
2022/08/19 03:27:18;;;;;;;0.20;0.10;;;19.20;99.90;;;;;;26150939;22;20191;-68
2022/08/19 03:37:22;;;;;;;0.20;0.00;;;19.20;99.90;;;;;;26176362;22;20606;-68
2022/08/19 03:47:27;;;;;;;0.20;0.10;;;19.50;99.90;;;;;;26174469;22;20195;-68
2022/08/19 03:57:32;;;;;;;0.20;0.00;;;19.60;99.90;;;;;;26174843;22;20173;-68
2022/08/19 04:07:37;;;;;;;0.20;0.00;;;19.50;99.90;;;;;;26174535;22;20219;-68
2022/08/19 04:17:41;;;;;;;0.20;0.00;;;19.20;99.90;;;;;;26173999;22;20198;-68
2022/08/19 04:27:46;;;;;;;0.20;0.10;;;19.30;99.90;;;;;;26165952;22;20179;-68
2022/08/19 04:37:49;;;;;;;0.20;0.00;;;19.10;99.90;;;;;;26173645;22;20179;-69
2022/08/19 04:47:57;;;;;;;0.20;0.00;;;18.90;99.90;;;;;;26173431;22;20217;-68
2022/08/19 04:58:20;;;;;;;0.20;0.00;;;19.00;99.90;;;;;;26149030;22;20167;-68
2022/08/19 05:08:26;;;;;;;0.20;0.00;;;19.20;99.90;;;;;;26170160;22;20188;-69
2022/08/19 05:28:56;;;;;;;0.20;0.00;;;19.30;99.90;;;;;;26145420;22;20198;-68
2022/08/19 05:39:03;;;;;;;0.20;0.00;;;20.40;99.90;;;;;;26140232;22;20238;-67
2022/08/19 05:49:09;;;;;;;0.20;0.10;;;20.40;99.90;;;;;;26169977;22;20194;-68
2022/08/19 05:59:13;;;;;;;0.20;0.10;;;20.40;99.90;;;;;;26168362;22;20164;-71
2022/08/19 06:09:19;;;;;;;0.20;0.00;;;20.10;99.90;;;;;;26169438;22;20202;-68
2022/08/19 06:19:25;;;;;;;0.20;0.00;;;19.90;99.90;;;;;;26168846;22;20159;-66
2022/08/19 06:29:31;;;;;;;0.20;0.00;;;19.90;99.90;;;;;;26167938;22;20180;-67
2022/08/19 06:39:38;;;;;;;0.20;0.10;;;20.00;99.90;;;;;;26168213;22;20164;-68
2022/08/19 06:49:43;;;;;;;0.20;0.10;;;20.30;99.90;;;;;;26167180;22;20191;-67
2022/08/19 06:59:47;;;;;;;0.20;0.00;;;20.40;99.90;;;;;;26166001;22;20167;-67
2022/08/19 07:09:52;;;;;;;0.20;0.00;;;20.90;99.90;;;;;;26167235;22;20206;-67
2022/08/19 07:20:07;;;;;;;0.20;0.00;;;21.10;99.90;;;;;;26163640;22;20213;-69
2022/08/19 07:30:14;;;;;;;0.20;0.00;;;21.40;99.90;;;;;;26172609;22;20202;-69
2022/08/19 07:40:17;;;;;;;0.20;0.00;;;21.60;99.90;;;;;;26172432;22;20164;-67
2022/08/19 07:50:23;;;;;;;0.20;0.00;;;21.90;99.90;;;;;;26173475;22;20201;-67
2022/08/19 08:00:27;;;;;;;0.20;0.00;;;22.20;99.90;;;;;;26172353;22;20167;-67
2022/08/19 08:10:32;;;;;;;0.20;0.00;;;22.50;99.90;;;;;;26169588;22;20203;-68
2022/08/19 08:20:36;;;;;;;0.20;0.00;;;22.90;99.90;;;;;;26173016;22;20167;-69
2022/08/19 08:30:42;;;;;;;0.20;0.00;;;23.50;99.90;;;;;;26141724;22;20183;-69
2022/08/19 08:40:52;;;;;;;0.20;0.00;;;23.60;99.90;;;;;;26172054;22;20163;-69
2022/08/19 08:51:00;;;;;;;0.20;0.00;;;24.00;99.90;;;;;;26115765;22;20194;-68
2022/08/19 09:01:07;;;;;;;0.20;0.00;;;24.60;99.90;;;;;;26163800;22;20174;-67
2022/08/19 09:11:19;;;;;;;0.20;0.00;;;24.90;99.90;;;;;;26168825;22;20203;-67
2022/08/19 09:21:43;;;;;;;0.20;0.00;;;25.20;99.90;;;;;;26167091;22;20158;-67
2022/08/19 09:31:48;;;;;;;0.20;0.00;;;25.70;99.90;;;;;;26167226;22;20651;-65
2022/08/19 09:41:52;;;;;;;0.20;0.00;;;26.00;99.90;;;;;;26138416;22;20175;-66
2022/08/19 09:51:58;;;;;;;0.20;0.00;;;25.90;99.90;;;;;;26140410;22;20183;-67
2022/08/19 10:02:03;;;;;;;0.20;0.10;;;26.00;99.90;;;;;;26139455;22;20190;-66
2022/08/19 10:12:15;;;;;;;0.20;0.00;;;26.10;99.90;;;;;;26166065;22;20220;-66
2022/08/19 10:22:22;;;;;;;0.20;0.00;;;26.40;99.90;;;;;;26166240;22;20167;-66
2022/08/19 10:32:30;;;;;;;0.20;0.00;;;26.50;99.90;;;;;;26165166;22;20193;-65
2022/08/19 10:42:37;;;;;;;0.20;0.00;;;26.80;99.90;;;;;;26166521;22;20183;-66
2022/08/19 10:52:43;;;;;;;0.20;0.00;;;27.30;99.90;;;;;;26166470;22;20183;-66
2022/08/19 11:02:52;;;;;;;0.20;0.00;;;27.40;99.90;;;;;;26168135;22;20155;-66
2022/08/19 11:12:57;;;;;;;0.20;0.00;;;27.20;99.90;;;;;;26145545;22;20212;-67
2022/08/19 11:23:01;;;;;;;0.20;0.00;;;27.60;99.90;;;;;;26172700;22;20186;-67
2022/08/19 11:33:10;;;;;;;0.20;0.00;;;27.30;99.90;;;;;;26146666;22;20179;-66
2022/08/19 11:43:14;;;;;;;0.20;0.00;;;28.20;99.90;;;;;;26172301;22;20247;-66
2022/08/19 11:53:20;;;;;;;0.20;0.00;;;28.80;99.90;;;;;;26142427;22;20231;-67
2022/08/19 12:03:24;;;;;;;0.20;0.00;;;28.90;99.90;;;;;;26146094;22;20164;-66
2022/08/19 12:13:30;;;;;;;0.20;0.00;;;29.60;99.90;;;;;;26139866;22;20199;-66
2022/08/19 12:23:37;;;;;;;0.20;0.00;;;30.70;99.90;;;;;;26171393;22;20159;-67
2022/08/19 12:33:43;;;;;;;0.20;0.00;;;29.70;99.90;;;;;;26166853;22;20198;-65
2022/08/19 12:43:48;;;;;;;0.20;0.00;;;30.50;99.90;;;;;;26143073;22;20163;-66
2022/08/19 12:53:53;;;;;;;0.20;0.00;;;29.60;99.90;;;;;;26141892;22;20188;-67
2022/08/19 13:03:57;;;;;;;0.20;0.00;;;31.40;99.90;;;;;;26171215;22;20198;-67
2022/08/19 13:14:03;;;;;;;0.20;0.00;;;31.80;99.90;;;;;;26169958;22;20195;-67
2022/08/19 13:24:07;;;;;;;0.20;0.00;;;31.80;99.90;;;;;;26168814;22;20186;-67
2022/08/19 13:34:12;;;;;;;0.20;0.00;;;32.70;99.90;;;;;;26169290;22;20187;-67
2022/08/19 13:44:17;;;;;;;0.20;0.00;;;32.40;99.90;;;;;;26164993;22;20163;-67
2022/08/19 13:54:23;;;;;;;0.20;0.00;;;32.80;99.90;;;;;;26140503;22;20199;-67
2022/08/19 14:04:26;;;;;;;0.20;0.00;;;34.00;99.90;;;;;;26164175;22;20285;-69
2022/08/19 14:14:32;;;;;;;0.20;0.00;;;33.40;99.90;;;;;;26163994;22;20521;-68
2022/08/19 14:24:39;;;;;;;0.20;0.00;;;33.70;99.90;;;;;;26164681;22;20168;-68
2022/08/19 14:34:51;;;;;;;0.20;0.00;;;34.20;99.90;;;;;;26165477;22;20271;-67
2022/08/19 14:44:59;;;;;;;0.20;0.00;;;34.60;99.90;;;;;;26166338;22;20599;-67
2022/08/19 14:55:05;;;;;;;0.20;0.00;;;34.10;99.90;;;;;;26162875;22;20258;-68
2022/08/19 15:05:10;;;;;;;0.20;0.00;;;34.50;99.90;;;;;;26163486;22;20184;-68
2022/08/19 15:15:17;;;;;;;0.20;0.00;;;34.60;99.90;;;;;;26164523;22;20195;-66
2022/08/19 15:25:21;;;;;;;0.20;0.00;;;34.60;99.90;;;;;;26138834;22;20172;-67
2022/08/19 15:35:26;;;;;;;0.20;0.00;;;33.00;99.90;;;;;;26164540;22;20194;-66
2022/08/19 15:45:32;;;;;;;0.20;0.00;;;31.00;99.90;;;;;;26137039;22;20163;-68
2022/08/19 15:55:43;;;;;;;0.20;0.05;;;29.50;99.90;;;;;;26145355;22;20179;-68
2022/08/19 16:16:10;;;;;;;0.20;0.00;;;28.40;99.90;;;;;;26171101;22;20206;-68
2022/08/19 16:26:14;;;;;;;0.20;0.00;;;28.30;99.90;;;;;;26143442;22;20166;-68
2022/08/19 16:36:22;;;;;;;0.20;0.00;;;28.00;99.90;;;;;;26169800;22;20187;-67
2022/08/19 16:46:27;;;;;;;0.20;0.00;;;28.00;99.90;;;;;;26138402;22;20163;-67
2022/08/19 16:56:32;;;;;;;0.20;0.00;;;27.80;99.90;;;;;;26117497;22;20203;-67
2022/08/19 17:06:36;;;;;;;0.20;0.00;;;27.90;99.90;;;;;;26168334;22;20188;-68
2022/08/19 17:16:42;;;;;;;0.20;0.00;;;27.70;99.90;;;;;;26140954;22;20687;-67
2022/08/19 17:26:46;;;;;;;0.20;0.10;;;27.90;99.90;;;;;;26159221;22;20167;-67
2022/08/19 17:36:51;;;;;;;0.20;0.00;;;29.30;99.90;;;;;;26168328;22;20188;-67
2022/08/19 17:46:55;;;;;;;0.20;0.00;;;30.40;99.90;;;;;;26167493;22;20186;-68
2022/08/19 17:57:00;;;;;;;0.20;0.03;;;29.90;99.90;;;;;;26168291;22;20203;-67
2022/08/19 18:07:05;;;;;;;0.20;0.10;;;27.90;99.90;;;;;;26165699;22;20187;-68
2022/08/19 18:17:12;;;;;;;0.20;0.00;;;26.70;99.90;;;;;;26165674;22;20226;-66
2022/08/19 18:27:17;;;;;;;0.20;0.00;;;26.50;99.90;;;;;;26166462;22;20152;-67
2022/08/19 18:37:25;;;;;;;0.20;0.00;;;26.20;99.90;;;;;;26161465;22;20254;-67
2022/08/19 18:58:07;;;;;;;0.20;0.00;;;25.90;99.90;;;;;;25919494;22;20199;-68
2022/08/19 19:08:15;;;;;;;0.20;0.00;;;25.70;99.90;;;;;;26163638;22;20195;-67
2022/08/19 19:18:20;;;;;;;0.20;0.10;;;25.40;99.90;;;;;;26164009;22;20255;-67
2022/08/19 19:28:27;;;;;;;0.20;0.00;;;25.40;99.90;;;;;;26144091;22;20178;-67
2022/08/19 19:38:32;;;;;;;0.20;0.10;;;25.20;99.90;;;;;;26144778;22;20321;-67
2022/08/19 19:48:37;;;;;;;0.20;0.00;;;25.20;99.90;;;;;;26171794;22;20485;-67
2022/08/19 19:58:42;;;;;;;0.20;0.00;;;25.20;99.90;;;;;;26118136;22;20184;-67
2022/08/19 20:19:10;;;;;;;0.20;0.00;;;23.90;99.90;;;;;;26173069;22;20187;-67
2022/08/19 20:29:14;;;;;;;0.20;0.00;;;23.60;99.90;;;;;;26170298;22;20170;-69
2022/08/19 20:39:39;;;;;;;0.20;0.00;;;23.40;99.90;;;;;;26167329;22;20167;-68
2022/08/19 20:49:43;;;;;;;0.20;0.00;;;23.20;99.90;;;;;;26172311;22;20175;-68
2022/08/19 20:59:48;;;;;;;0.20;0.00;;;23.10;99.90;;;;;;26136625;22;20168;-68
2022/08/19 21:09:52;;;;;;;0.20;0.00;;;23.10;99.90;;;;;;26169270;22;20195;-66
2022/08/19 21:19:58;;;;;;;0.20;0.00;;;23.00;99.90;;;;;;26169009;22;20172;-68
2022/08/19 21:30:03;;;;;;;0.20;0.00;;;22.80;99.90;;;;;;26166353;22;20179;-69
2022/08/19 21:40:09;;;;;;;0.20;0.00;;;22.70;99.90;;;;;;26167452;22;20167;-70
2022/08/19 21:50:14;;;;;;;0.20;0.10;;;22.60;99.90;;;;;;26166305;22;20179;-67
2022/08/19 22:00:22;;;;;;;0.20;0.00;;;22.60;99.90;;;;;;26166940;22;20174;-68
2022/08/19 22:10:29;;;;;;;0.20;0.00;;;22.50;99.90;;;;;;26164754;22;20237;-68
2022/08/19 22:20:34;;;;;;;0.20;0.00;;;22.50;99.90;;;;;;26168930;22;20171;-67
2022/08/19 22:30:40;;;;;;;0.20;0.00;;;22.40;99.90;;;;;;26141198;22;20188;-68
2022/08/19 22:40:47;;;;;;;0.20;0.00;;;22.30;99.90;;;;;;26167754;22;20167;-67
2022/08/19 23:01:16;;;;;;;0.20;0.00;;;22.40;99.90;;;;;;26147662;22;20168;-67
2022/08/19 23:11:34;;;;;;;0.20;0.00;;;22.60;99.90;;;;;;26171660;22;20202;-67
2022/08/19 23:21:45;;;;;;;0.20;0.00;;;22.70;99.90;;;;;;26147715;22;20178;-67
2022/08/19 23:31:49;;;;;;;0.20;0.00;;;22.50;99.90;;;;;;26175210;22;20195;-69
2022/08/19 23:41:55;;;;;;;0.20;0.10;;;22.40;99.90;;;;;;26176461;22;20173;-68
2022/08/19 23:51:59;;;;;;;0.20;0.00;;;22.30;99.90;;;;;;26173540;22;20270;-67
